createdAt,value
2018-07-11T00:01:11.078Z,3.20
2018-07-11T00:03:50.502Z,3.08
2018-07-11T00:06:20.213Z,2.77
2018-07-11T00:08:48.084Z,3.52
2018-07-11T00:11:16.036Z,3.50
2018-07-11T00:13:44.715Z,5.47
2018-07-11T00:16:13.059Z,4.08
2018-07-11T00:18:40.889Z,3.70
2018-07-11T00:21:08.696Z,3.45
2018-07-11T00:23:36.588Z,3.47
2018-07-11T00:26:05.022Z,3.10
2018-07-11T00:28:32.828Z,3.58
2018-07-11T00:31:01.044Z,3.75
2018-07-11T00:33:28.945Z,3.85
2018-07-11T00:35:56.744Z,3.15
2018-07-11T00:38:24.771Z,3.10
2018-07-11T00:40:52.772Z,3.47
2018-07-11T00:43:20.615Z,3.50
2018-07-11T00:45:48.667Z,3.55
2018-07-11T00:48:16.693Z,5.15
2018-07-11T00:50:44.604Z,6.80
2018-07-11T00:53:13.031Z,4.25
2018-07-11T00:55:40.856Z,3.80
2018-07-11T00:58:13.155Z,4.37
2018-07-11T01:00:41.029Z,4.17
2018-07-11T01:03:08.804Z,4.28
2018-07-11T01:05:36.623Z,3.50
2018-07-11T01:08:04.399Z,4.35
2018-07-11T01:10:32.191Z,4.15
2018-07-11T01:13:00.132Z,3.45
2018-07-11T01:15:27.852Z,7.83
2018-07-11T01:18:04.067Z,3.30
2018-07-11T01:20:32.031Z,4.08
2018-07-11T01:22:59.765Z,3.92
2018-07-11T01:25:27.547Z,4.78
2018-07-11T01:27:55.248Z,4.30
2018-07-11T01:30:22.931Z,4.00
2018-07-11T01:32:50.693Z,4.55
2018-07-11T01:35:18.391Z,3.72
2018-07-11T01:37:46.155Z,4.70
2018-07-11T01:40:13.884Z,4.65
2018-07-11T01:42:41.624Z,6.47
2018-07-11T01:45:09.379Z,4.65
2018-07-11T01:47:37.136Z,4.60
2018-07-11T01:50:04.901Z,6.28
2018-07-11T01:52:43.815Z,4.95
2018-07-11T01:55:11.584Z,5.40
2018-07-11T01:57:39.318Z,5.20
2018-07-11T02:00:07.195Z,4.85
2018-07-11T02:02:34.988Z,5.75
2018-07-11T02:05:02.840Z,5.92
2018-07-11T02:07:30.613Z,5.70
2018-07-11T02:09:58.468Z,5.55
2018-07-11T02:12:26.290Z,5.12
2018-07-11T02:14:59.640Z,5.25
2018-07-11T02:17:27.353Z,6.00
2018-07-11T02:19:55.219Z,5.95
2018-07-11T02:22:23.052Z,5.33
2018-07-11T02:24:50.878Z,5.22
2018-07-11T02:27:18.677Z,6.12
2018-07-11T02:29:46.516Z,6.37
2018-07-11T02:32:14.392Z,6.90
2018-07-11T02:34:42.141Z,7.12
2018-07-11T02:37:09.953Z,7.10
2018-07-11T02:39:37.720Z,6.72
2018-07-11T02:42:05.510Z,6.45
2018-07-11T02:44:33.284Z,7.55
2018-07-11T02:47:06.601Z,6.87
2018-07-11T02:49:34.509Z,6.42
2018-07-11T02:52:02.400Z,7.10
2018-07-11T02:54:30.177Z,7.00
2018-07-11T02:56:57.947Z,6.80
2018-07-11T02:59:25.715Z,6.47
2018-07-11T03:01:53.664Z,7.22
2018-07-11T03:04:21.552Z,6.80
2018-07-11T03:06:49.329Z,8.00
2018-07-11T03:09:17.169Z,7.20
2018-07-11T03:11:44.976Z,7.03
2018-07-11T03:14:12.947Z,7.30
2018-07-11T03:16:41.097Z,9.68
2018-07-11T03:19:08.868Z,6.28
2018-07-11T03:21:36.985Z,8.25
2018-07-11T03:24:04.768Z,6.83
2018-07-11T03:26:32.993Z,8.38
2018-07-11T03:29:01.892Z,8.00
2018-07-11T03:31:29.773Z,7.95
2018-07-11T03:33:57.519Z,7.78
2018-07-11T03:36:25.796Z,7.50
2018-07-11T03:38:53.601Z,8.40
2018-07-11T03:41:21.324Z,7.47
2018-07-11T03:43:49.100Z,7.78
2018-07-11T03:46:16.863Z,6.50
2018-07-11T03:48:44.631Z,7.25
2018-07-11T03:51:12.393Z,7.70
2018-07-11T03:53:40.172Z,8.65
2018-07-11T03:56:07.948Z,7.55
2018-07-11T03:58:35.753Z,7.10
2018-07-11T04:01:03.484Z,7.42
2018-07-11T04:03:31.231Z,7.17
2018-07-11T04:05:58.938Z,9.70
2018-07-11T04:08:26.744Z,8.15
2018-07-11T04:10:54.500Z,10.32
2018-07-11T04:13:22.210Z,7.15
2018-07-11T04:15:49.980Z,11.75
2018-07-11T04:18:25.211Z,7.47
2018-07-11T04:20:52.954Z,8.40
2018-07-11T04:23:20.733Z,9.53
2018-07-11T04:25:48.559Z,8.33
2018-07-11T04:28:16.387Z,8.30
2018-07-11T04:30:44.124Z,8.98
2018-07-11T04:33:11.913Z,8.20
2018-07-11T04:35:39.813Z,7.40
2018-07-11T04:38:07.618Z,9.13
2018-07-11T04:40:37.067Z,8.05
2018-07-11T04:43:07.436Z,7.67
2018-07-11T04:45:37.651Z,8.75
2018-07-11T04:48:06.661Z,8.08
2018-07-11T04:50:34.724Z,9.85
2018-07-11T04:53:06.187Z,8.23
2018-07-11T04:55:34.092Z,8.28
2018-07-11T04:58:01.809Z,8.18
2018-07-11T05:00:29.641Z,8.93
2018-07-11T05:02:57.633Z,8.40
2018-07-11T05:05:25.496Z,8.83
2018-07-11T05:07:53.364Z,8.43
2018-07-11T05:10:21.250Z,8.80
2018-07-11T05:12:49.052Z,9.88
2018-07-11T05:15:16.773Z,9.38
2018-07-11T05:17:44.502Z,8.63
2018-07-11T05:20:12.188Z,10.55
2018-07-11T05:22:39.921Z,9.53
2018-07-11T05:25:07.720Z,11.00
2018-07-11T05:27:35.520Z,10.25
2018-07-11T05:30:03.252Z,9.08
2018-07-11T05:32:30.988Z,9.60
2018-07-11T05:34:59.385Z,11.15
2018-07-11T05:37:27.089Z,9.08
2018-07-11T05:39:54.807Z,9.38
2018-07-11T05:42:22.636Z,10.55
2018-07-11T05:44:50.396Z,10.85
2018-07-11T05:47:18.153Z,9.53
2018-07-11T05:49:45.888Z,9.75
2018-07-11T05:52:13.645Z,10.23
2018-07-11T05:54:41.393Z,9.10
2018-07-11T05:57:09.147Z,8.73
2018-07-11T05:59:36.894Z,11.68
2018-07-11T06:02:04.641Z,9.73
2018-07-11T06:04:32.369Z,9.25
2018-07-11T06:07:00.057Z,8.93
2018-07-11T06:09:27.753Z,9.35
2018-07-11T06:11:56.061Z,8.68
2018-07-11T06:14:24.453Z,8.25
2018-07-11T06:16:52.189Z,9.53
2018-07-11T06:19:19.872Z,9.93
2018-07-11T06:21:49.210Z,9.05
2018-07-11T06:24:17.195Z,10.05
2018-07-11T06:26:44.988Z,9.45
2018-07-11T06:29:12.626Z,8.45
2018-07-11T06:31:40.290Z,8.48
2018-07-11T06:34:07.931Z,7.62
2018-07-11T06:36:35.607Z,7.85
2018-07-11T06:39:04.048Z,7.10
2018-07-11T06:41:31.706Z,7.55
2018-07-11T06:43:59.354Z,8.83
2018-07-11T06:46:27.034Z,8.45
2018-07-11T06:48:54.670Z,8.48
2018-07-11T06:51:22.336Z,8.60
2018-07-11T06:53:50.007Z,9.10
2018-07-11T06:56:17.692Z,9.65
2018-07-11T06:58:45.375Z,9.48
2018-07-11T07:01:13.042Z,8.03
2018-07-11T07:03:40.761Z,8.00
2018-07-11T07:06:08.371Z,8.03
2018-07-11T07:08:36.048Z,6.75
2018-07-11T07:11:03.712Z,7.20
2018-07-11T07:13:31.388Z,7.67
2018-07-11T07:15:59.021Z,8.30
2018-07-11T07:18:26.732Z,7.65
2018-07-11T07:20:54.372Z,9.83
2018-07-11T07:23:22.125Z,8.63
2018-07-11T07:25:49.828Z,8.80
2018-07-11T07:28:17.462Z,7.67
2018-07-11T07:30:45.187Z,9.58
2018-07-11T07:33:12.843Z,9.35
2018-07-11T07:35:40.496Z,9.70
2018-07-11T07:38:08.297Z,8.98
2018-07-11T07:40:36.057Z,8.33
2018-07-11T07:43:03.789Z,8.55
2018-07-11T07:45:31.612Z,9.00
2018-07-11T07:48:00.320Z,7.95
2018-07-11T07:50:28.124Z,9.20
2018-07-11T07:52:56.067Z,9.33
2018-07-11T07:55:23.904Z,8.25
2018-07-11T07:57:51.745Z,10.03
2018-07-11T08:00:19.634Z,10.03
2018-07-11T08:02:47.488Z,9.18
2018-07-11T08:05:15.222Z,9.95
2018-07-11T08:07:42.909Z,11.10
2018-07-11T08:10:10.653Z,11.22
2018-07-11T08:12:38.467Z,9.68
2018-07-11T08:15:06.837Z,9.03
2018-07-11T08:17:34.636Z,9.35
2018-07-11T08:20:02.367Z,10.82
2018-07-11T08:23:11.929Z,8.70
2018-07-11T08:25:51.305Z,8.33
2018-07-11T08:30:34.290Z,7.40
2018-07-11T08:33:16.779Z,8.08
2018-07-11T08:37:58.624Z,9.03
2018-07-11T08:41:08.923Z,8.65
2018-07-11T08:43:45.594Z,6.75
2018-07-11T08:46:20.480Z,6.28
2018-07-11T08:48:58.090Z,6.42
2018-07-11T08:51:38.027Z,6.22
2018-07-11T08:54:25.759Z,5.62
2018-07-11T08:57:07.811Z,5.42
2018-07-11T08:59:48.419Z,5.45
2018-07-11T09:04:36.047Z,5.97
2018-07-11T09:07:14.937Z,6.05
2018-07-11T09:10:24.340Z,5.70
2018-07-11T09:13:03.156Z,6.83
2018-07-11T09:15:40.242Z,7.53
2018-07-11T09:18:18.003Z,6.10
2018-07-11T09:20:56.962Z,5.78
2018-07-11T09:25:35.069Z,8.08
2018-07-11T09:28:02.750Z,7.42
2018-07-11T09:30:30.503Z,7.45
2018-07-11T09:32:58.287Z,7.53
2018-07-11T09:35:25.967Z,6.85
2018-07-11T09:37:53.634Z,5.97
2018-07-11T09:40:21.387Z,6.45
2018-07-11T09:42:49.148Z,6.10
2018-07-11T09:45:16.941Z,6.10
2018-07-11T09:47:44.715Z,5.97
2018-07-11T09:50:12.991Z,5.33
2018-07-11T09:52:40.727Z,7.17
2018-07-11T09:55:08.452Z,5.28
2018-07-11T09:57:38.272Z,5.53
2018-07-11T10:00:06.480Z,5.53
2018-07-11T10:02:34.240Z,4.53
2018-07-11T10:05:02.077Z,5.53
2018-07-11T10:07:29.827Z,5.87
2018-07-11T10:09:57.606Z,6.53
2018-07-11T10:12:25.370Z,5.87
2018-07-11T10:14:53.081Z,6.20
2018-07-11T10:17:20.789Z,6.67
2018-07-11T10:19:48.540Z,6.05
2018-07-11T10:22:16.340Z,5.95
2018-07-11T10:24:44.059Z,6.70
2018-07-11T10:27:11.731Z,8.40
2018-07-11T10:30:34.076Z,5.45
2018-07-11T10:33:01.789Z,8.00
2018-07-11T10:35:29.507Z,5.10
2018-07-11T10:37:57.323Z,6.30
2018-07-11T10:40:25.120Z,5.65
2018-07-11T10:42:52.920Z,5.03
2018-07-11T10:45:20.900Z,6.53
2018-07-11T10:47:50.767Z,5.45
2018-07-11T10:50:18.595Z,6.62
2018-07-11T10:52:46.257Z,5.72
2018-07-11T10:55:14.517Z,5.00
2018-07-11T10:57:43.549Z,4.70
2018-07-11T11:00:11.212Z,4.58
2018-07-11T11:02:39.897Z,5.22
2018-07-11T11:05:08.698Z,5.00
2018-07-11T11:07:36.433Z,5.15
2018-07-11T11:10:04.249Z,5.40
2018-07-11T11:12:31.955Z,5.70
2018-07-11T11:14:59.749Z,5.70
2018-07-11T11:17:29.759Z,5.67
2018-07-11T11:19:57.611Z,4.40
2018-07-11T11:22:25.356Z,4.80
2018-07-11T11:24:54.074Z,5.05
2018-07-11T11:27:21.794Z,5.70
2018-07-11T11:29:49.512Z,4.80
2018-07-11T11:32:17.247Z,5.72
2018-07-11T11:34:45.000Z,4.60
2018-07-11T11:37:12.837Z,4.80
2018-07-11T11:39:46.028Z,4.72
2018-07-11T11:42:13.983Z,5.10
2018-07-11T11:44:42.897Z,5.12
2018-07-11T11:47:12.787Z,9.53
2018-07-11T11:49:43.461Z,4.75
2018-07-11T11:52:11.195Z,4.55
2018-07-11T11:54:39.485Z,5.30
2018-07-11T11:57:17.083Z,5.45
2018-07-11T11:59:47.115Z,7.85
2018-07-11T12:02:14.895Z,4.97
2018-07-11T12:04:42.616Z,4.55
2018-07-11T12:07:10.396Z,4.80
2018-07-11T12:09:38.116Z,4.85
2018-07-11T12:12:05.885Z,5.40
2018-07-11T12:14:33.808Z,5.30
2018-07-11T12:17:01.569Z,4.60
2018-07-11T12:19:29.415Z,4.20
2018-07-11T12:21:57.237Z,4.70
2018-07-11T12:24:25.062Z,4.00
2018-07-11T12:26:52.907Z,3.30
2018-07-11T12:29:20.716Z,3.20
2018-07-11T12:31:48.549Z,2.75
2018-07-11T12:34:16.317Z,3.35
2018-07-11T12:36:44.188Z,4.53
2018-07-11T12:39:12.012Z,3.80
2018-07-11T12:41:39.858Z,6.20
2018-07-11T12:44:07.644Z,3.55
2018-07-11T12:46:36.204Z,3.30
2018-07-11T12:49:05.211Z,3.80
2018-07-11T12:51:33.461Z,3.70
2018-07-11T12:54:01.555Z,6.08
2018-07-11T12:56:29.458Z,4.25
2018-07-11T12:58:57.761Z,9.43
2018-07-11T13:01:26.947Z,4.40
2018-07-11T13:03:56.039Z,3.33
2018-07-11T13:06:25.232Z,3.83
2018-07-11T13:08:52.937Z,5.25
2018-07-11T13:11:20.840Z,4.90
2018-07-11T13:13:48.703Z,4.28
2018-07-11T13:16:16.831Z,4.50
2018-07-11T13:18:44.580Z,3.95
2018-07-11T13:21:13.421Z,5.40
2018-07-11T13:23:41.235Z,3.67
2018-07-11T13:26:11.040Z,3.92
2018-07-11T13:28:38.930Z,4.30
2018-07-11T13:31:06.916Z,3.50
2018-07-11T13:33:34.694Z,4.47
2018-07-11T13:36:02.461Z,4.05
2018-07-11T13:38:30.270Z,4.42
2018-07-11T13:40:58.007Z,3.72
2018-07-11T13:43:25.735Z,3.70
2018-07-11T13:45:53.463Z,3.60
2018-07-11T13:48:21.288Z,3.37
2018-07-11T13:50:49.028Z,3.65
2018-07-11T13:53:16.912Z,5.20
2018-07-11T13:55:44.710Z,3.60
2018-07-11T13:58:12.543Z,3.47
2018-07-11T14:00:40.537Z,4.53
2018-07-11T14:03:08.284Z,4.95
2018-07-11T14:05:36.027Z,4.47
2018-07-11T14:08:03.884Z,4.12
2018-07-11T14:10:31.625Z,3.62
2018-07-11T14:12:59.450Z,3.37
2018-07-11T14:15:27.216Z,3.33
2018-07-11T14:17:55.052Z,4.03
2018-07-11T14:20:22.828Z,3.55
2018-07-11T14:22:50.564Z,3.93
2018-07-11T14:25:19.599Z,3.15
2018-07-11T14:27:48.507Z,3.33
2018-07-11T14:30:16.511Z,3.20
2018-07-11T14:32:50.111Z,2.60
2018-07-11T14:35:18.158Z,7.25
2018-07-11T14:37:46.879Z,5.13
2018-07-11T14:40:14.710Z,4.63
2018-07-11T14:42:43.075Z,4.05
2018-07-11T14:45:10.839Z,2.80
2018-07-11T14:47:44.054Z,2.70
2018-07-11T14:50:11.809Z,2.80
2018-07-11T14:52:39.649Z,5.73
2018-07-11T14:55:07.437Z,2.57
2018-07-11T14:57:35.379Z,2.77
2018-07-11T15:00:03.412Z,2.73
2018-07-11T15:02:31.582Z,2.10
2018-07-11T15:04:59.388Z,2.77
2018-07-11T15:07:27.424Z,3.17
2018-07-11T15:09:55.231Z,2.63
2018-07-11T15:12:22.969Z,2.10
2018-07-11T15:14:50.765Z,2.40
2018-07-11T15:17:18.520Z,3.53
2018-07-11T15:19:46.309Z,1.90
2018-07-11T15:22:14.127Z,2.77
2018-07-11T15:24:41.959Z,2.13
2018-07-11T15:27:09.886Z,2.27
2018-07-11T15:29:38.447Z,2.30
2018-07-11T15:32:06.180Z,4.80
2018-07-11T15:34:33.982Z,2.40
2018-07-11T15:37:03.531Z,2.60
2018-07-11T15:39:31.319Z,2.07
2018-07-11T15:42:00.572Z,2.50
2018-07-11T15:44:28.375Z,2.10
2018-07-11T15:46:56.207Z,3.63
2018-07-11T15:49:35.739Z,2.27
2018-07-11T15:52:03.697Z,3.03
2018-07-11T15:54:32.869Z,2.35
2018-07-11T15:57:00.751Z,2.30
2018-07-11T15:59:32.880Z,2.33
2018-07-11T16:02:00.552Z,3.10
2018-07-11T16:04:33.960Z,2.00
2018-07-11T16:07:03.738Z,2.60
2018-07-11T16:09:47.600Z,2.95
2018-07-11T16:12:16.411Z,2.27
2018-07-11T16:14:44.360Z,2.20
2018-07-11T16:17:22.384Z,4.17
2018-07-11T16:19:50.273Z,2.20
2018-07-11T16:22:18.280Z,2.63
2018-07-11T16:24:47.015Z,2.40
2018-07-11T16:27:14.811Z,2.35
2018-07-11T16:29:42.750Z,3.00
2018-07-11T16:32:10.562Z,2.20
2018-07-11T16:35:04.267Z,2.97
2018-07-11T16:37:34.435Z,2.40
2018-07-11T16:40:09.148Z,2.80
2018-07-11T16:42:36.921Z,2.10
2018-07-11T16:45:04.680Z,3.27
2018-07-11T16:47:32.486Z,3.10
2018-07-11T16:50:00.363Z,4.10
2018-07-11T16:52:28.711Z,4.30
2018-07-11T16:54:56.605Z,4.45
2018-07-11T16:57:31.824Z,3.03
2018-07-11T17:00:04.570Z,3.00
2018-07-11T17:02:32.421Z,2.72
2018-07-11T17:05:04.995Z,3.80
2018-07-11T17:07:50.185Z,4.00
2018-07-11T17:10:19.838Z,2.50
2018-07-11T17:12:50.859Z,2.90
2018-07-11T17:15:19.684Z,2.92
2018-07-11T17:17:47.611Z,5.50
2018-07-11T17:20:15.473Z,2.70
2018-07-11T17:22:58.480Z,2.42
2018-07-11T17:25:31.522Z,2.62
2018-07-11T17:28:03.179Z,2.47
2018-07-11T17:30:39.347Z,3.35
2018-07-11T17:33:08.213Z,2.90
2018-07-11T17:35:40.696Z,2.80
2018-07-11T17:38:08.547Z,2.50
2018-07-11T17:40:38.697Z,2.75
2018-07-11T17:43:08.083Z,3.15
2018-07-11T17:45:36.358Z,2.50
2018-07-11T17:48:29.957Z,5.03
2018-07-11T17:51:01.161Z,4.08
2018-07-11T17:53:35.736Z,2.75
2018-07-11T17:56:07.589Z,2.80
2018-07-11T17:58:44.022Z,2.52
2018-07-11T18:01:11.912Z,3.20
2018-07-11T18:03:56.976Z,4.05
2018-07-11T18:06:34.312Z,3.10
2018-07-11T18:09:07.924Z,2.50
2018-07-11T18:11:50.352Z,3.10
2018-07-11T18:14:28.295Z,3.37
2018-07-11T18:17:03.522Z,3.00
2018-07-11T18:20:14.557Z,2.40
2018-07-11T18:22:50.019Z,2.67
2018-07-11T18:25:34.833Z,4.65
2018-07-11T18:28:26.267Z,2.70
2018-07-11T18:31:01.360Z,2.62
2018-07-11T18:33:36.896Z,2.58
2018-07-11T18:36:32.614Z,2.92
2018-07-11T18:39:11.022Z,2.70
2018-07-11T18:43:52.445Z,2.72
2018-07-11T18:46:32.379Z,2.55
2018-07-11T18:49:14.058Z,3.65
2018-07-11T18:51:58.964Z,3.58
2018-07-11T18:54:37.816Z,2.98
2018-07-11T18:57:15.648Z,2.67
2018-07-11T18:59:57.581Z,2.90
2018-07-11T19:03:36.416Z,2.90
2018-07-11T19:06:13.134Z,2.80
2018-07-11T19:08:51.735Z,2.67
2018-07-11T19:11:23.530Z,3.30
2018-07-11T19:13:53.134Z,2.83
2018-07-11T19:16:34.324Z,2.77
2018-07-11T19:19:06.084Z,2.05
2018-07-11T19:21:47.939Z,2.60
2018-07-11T19:24:18.568Z,2.80
2018-07-11T19:27:06.400Z,3.15
2018-07-11T19:30:46.696Z,3.00
2018-07-11T19:33:51.613Z,2.85
2018-07-11T19:36:31.479Z,4.70
2018-07-11T19:39:08.278Z,15.45
2018-07-11T19:41:56.338Z,2.70
2018-07-11T19:44:33.830Z,2.83
2018-07-11T19:47:06.634Z,3.00
2018-07-11T19:52:21.378Z,3.10
2018-07-11T19:54:55.539Z,3.67
2018-07-11T19:57:23.387Z,2.92
2018-07-11T19:59:51.109Z,3.42
2018-07-11T20:02:18.949Z,4.00
2018-07-11T20:04:46.743Z,3.12
2018-07-11T20:07:14.579Z,4.70
2018-07-11T20:09:42.411Z,4.75
2018-07-11T20:12:10.924Z,3.15
2018-07-11T20:14:38.770Z,3.77
2018-07-11T20:17:06.545Z,3.02
2018-07-11T20:19:34.325Z,2.70
2018-07-11T20:22:02.149Z,2.87
2018-07-11T20:24:30.209Z,2.67
2018-07-11T20:26:58.000Z,3.00
2018-07-11T20:29:25.836Z,2.27
2018-07-11T20:31:53.802Z,2.98
2018-07-11T20:34:21.616Z,3.05
2018-07-11T20:36:49.321Z,3.30
2018-07-11T20:39:17.015Z,3.00
2018-07-11T20:41:44.849Z,4.45
2018-07-11T20:44:12.653Z,3.40
2018-07-11T20:46:40.503Z,2.67
2018-07-11T20:49:13.745Z,2.98
2018-07-11T20:51:41.483Z,2.80
2018-07-11T20:54:09.267Z,2.85
2018-07-11T20:56:36.981Z,3.30
2018-07-11T20:59:15.946Z,3.27
2018-07-11T21:01:54.752Z,3.62
2018-07-11T21:04:44.868Z,3.60
2018-07-11T21:07:22.832Z,4.00
2018-07-11T21:10:00.278Z,3.47
2018-07-11T21:12:40.846Z,3.72
2018-07-11T21:16:21.449Z,4.15
2018-07-11T21:19:01.644Z,4.37
2018-07-11T21:21:29.909Z,4.62
2018-07-11T21:23:57.618Z,5.35
2018-07-11T21:26:25.347Z,3.60
2018-07-11T21:28:53.114Z,3.35
2018-07-11T21:31:20.873Z,3.70
2018-07-11T21:33:48.639Z,4.67
2018-07-11T21:36:16.480Z,4.25
2018-07-11T21:38:44.235Z,4.40
2018-07-11T21:41:12.241Z,3.70
2018-07-11T21:43:40.021Z,4.03
2018-07-11T21:46:07.790Z,5.05
2018-07-11T21:48:35.521Z,5.25
2018-07-11T21:51:03.342Z,4.10
2018-07-11T21:53:31.085Z,3.40
2018-07-11T21:55:58.811Z,4.62
2018-07-11T21:58:26.648Z,3.20
2018-07-11T22:01:00.490Z,4.00
2018-07-11T22:03:28.352Z,4.00
2018-07-11T22:05:56.316Z,4.40
2018-07-11T22:08:24.036Z,4.10
2018-07-11T22:10:51.752Z,4.50
2018-07-11T22:13:19.493Z,4.15
2018-07-11T22:15:47.224Z,4.47
2018-07-11T22:18:26.164Z,3.87
2018-07-11T22:20:52.713Z,3.70
2018-07-11T22:23:19.378Z,3.60
2018-07-11T22:25:45.888Z,3.60
2018-07-11T22:28:12.452Z,4.25
2018-07-11T22:30:38.992Z,4.03
2018-07-11T22:33:05.520Z,3.75
2018-07-11T22:35:32.130Z,4.10
2018-07-11T22:37:58.711Z,3.30
2018-07-11T22:40:25.263Z,3.75
2018-07-11T22:42:51.885Z,3.70
2018-07-11T22:45:18.441Z,3.60
2018-07-11T22:47:45.001Z,3.85
2018-07-11T22:50:11.520Z,4.40
2018-07-11T22:52:38.196Z,4.08
2018-07-11T22:55:04.620Z,3.95
2018-07-11T22:57:31.203Z,3.95
2018-07-11T22:59:57.778Z,4.17
2018-07-11T23:02:24.320Z,4.00
2018-07-11T23:04:50.884Z,3.60
2018-07-11T23:07:17.455Z,3.90
2018-07-11T23:09:43.976Z,3.90
2018-07-11T23:12:10.530Z,4.20
2018-07-11T23:14:37.065Z,4.08
2018-07-11T23:17:03.629Z,3.85
2018-07-11T23:19:30.471Z,3.40
2018-07-11T23:21:57.452Z,3.55
2018-07-11T23:24:24.196Z,3.85
2018-07-11T23:26:50.777Z,7.78
2018-07-11T23:29:17.316Z,3.70
2018-07-11T23:31:43.868Z,3.40
2018-07-11T23:34:10.538Z,3.72
2018-07-11T23:36:37.081Z,3.60
2018-07-11T23:39:04.708Z,3.80
2018-07-11T23:41:31.252Z,5.70
2018-07-11T23:43:57.772Z,4.20
2018-07-11T23:46:24.345Z,3.75
2018-07-11T23:48:50.876Z,3.95
2018-07-11T23:51:17.420Z,4.10
2018-07-11T23:53:43.948Z,3.40
2018-07-11T23:56:10.556Z,4.42
2018-07-11T23:58:37.103Z,4.35
